createdAt,value
2023-04-28T00:01:41.951Z,50.45
2023-04-28T00:04:09.306Z,51.95
2023-04-28T00:06:37.177Z,51.58
2023-04-28T00:09:04.271Z,51.83
2023-04-28T00:11:30.981Z,50.60
2023-04-28T00:13:57.973Z,51.60
2023-04-28T00:16:24.693Z,51.35
2023-04-28T00:18:52.074Z,50.92
2023-04-28T00:21:18.883Z,51.65
2023-04-28T00:23:46.040Z,50.47
2023-04-28T00:26:12.842Z,49.67
2023-04-28T00:28:39.948Z,51.97
2023-04-28T00:31:13.812Z,51.85
2023-04-28T00:33:40.981Z,51.47
2023-04-28T00:36:08.058Z,54.50
2023-04-28T00:38:35.151Z,49.85
2023-04-28T00:41:01.875Z,51.83
2023-04-28T00:43:29.174Z,51.10
2023-04-28T00:45:56.054Z,51.97
2023-04-28T00:48:24.375Z,51.85
2023-04-28T00:50:51.340Z,50.95
2023-04-28T00:53:18.353Z,52.20
2023-04-28T00:55:45.126Z,51.40
2023-04-28T00:58:12.213Z,51.70
2023-04-28T01:00:39.411Z,52.45
2023-04-28T01:03:06.760Z,49.60
2023-04-28T01:05:33.606Z,52.28
2023-04-28T01:08:00.706Z,48.80
2023-04-28T01:10:27.393Z,51.50
2023-04-28T01:12:54.374Z,50.13
2023-04-28T01:15:21.353Z,52.28
2023-04-28T01:17:48.392Z,53.75
2023-04-28T01:20:15.538Z,53.72
2023-04-28T01:22:42.604Z,52.08
2023-04-28T01:25:09.484Z,50.95
2023-04-28T01:27:36.524Z,52.72
2023-04-28T01:30:03.440Z,52.67
2023-04-28T01:32:30.568Z,53.22
2023-04-28T01:34:57.256Z,50.47
2023-04-28T01:37:24.429Z,51.72
2023-04-28T01:39:51.116Z,51.10
2023-04-28T01:42:18.126Z,52.45
2023-04-28T01:44:45.231Z,49.97
2023-04-28T01:47:12.330Z,48.33
2023-04-28T01:49:39.039Z,50.70
2023-04-28T01:52:06.872Z,49.80
2023-04-28T01:54:33.637Z,47.83
2023-04-28T01:57:02.423Z,46.88
2023-04-28T01:59:29.275Z,47.75
2023-04-28T02:01:56.442Z,47.55
2023-04-28T02:04:23.311Z,47.70
2023-04-28T02:06:50.389Z,48.08
2023-04-28T02:09:17.131Z,45.00
2023-04-28T02:11:44.137Z,47.33
2023-04-28T02:14:10.849Z,45.50
2023-04-28T02:16:37.863Z,45.28
2023-04-28T02:19:04.611Z,42.38
2023-04-28T02:21:31.941Z,44.78
2023-04-28T02:23:58.827Z,43.78
2023-04-28T02:26:25.940Z,43.88
2023-04-28T02:28:52.598Z,40.42
2023-04-28T02:31:19.704Z,41.00
2023-04-28T02:33:46.619Z,40.15
2023-04-28T02:36:13.783Z,42.63
2023-04-28T02:38:41.770Z,41.40
2023-04-28T02:41:11.740Z,43.00
2023-04-28T02:43:38.558Z,40.38
2023-04-28T02:46:05.827Z,41.55
2023-04-28T02:48:35.442Z,37.97
2023-04-28T02:51:02.702Z,37.53
2023-04-28T02:53:29.437Z,38.35
2023-04-28T02:55:56.929Z,37.90
2023-04-28T02:58:23.679Z,36.75
2023-04-28T03:00:50.909Z,37.63
2023-04-28T03:03:17.881Z,37.20
2023-04-28T03:05:45.009Z,35.40
2023-04-28T03:08:11.737Z,35.75
2023-04-28T03:10:38.828Z,35.92
2023-04-28T03:13:05.581Z,36.80
2023-04-28T03:15:33.016Z,34.20
2023-04-28T03:17:59.757Z,33.72
2023-04-28T03:20:26.761Z,33.15
2023-04-28T03:22:53.493Z,34.80
2023-04-28T03:25:20.500Z,33.85
2023-04-28T03:27:47.229Z,33.20
2023-04-28T03:30:14.463Z,32.78
2023-04-28T03:32:41.335Z,32.38
2023-04-28T03:35:08.648Z,30.73
2023-04-28T03:37:35.331Z,31.27
2023-04-28T03:40:03.245Z,31.48
2023-04-28T03:42:30.009Z,30.48
2023-04-28T03:44:56.991Z,31.25
2023-04-28T03:47:23.723Z,32.35
2023-04-28T03:49:51.016Z,30.58
2023-04-28T03:52:17.728Z,30.00
2023-04-28T03:54:44.796Z,29.75
2023-04-28T03:57:12.214Z,30.58
2023-04-28T03:59:39.244Z,30.40
2023-04-28T04:02:06.066Z,28.90
2023-04-28T04:04:33.250Z,30.02
2023-04-28T04:07:00.182Z,30.02
2023-04-28T04:09:27.249Z,29.50
2023-04-28T04:11:53.961Z,30.10
2023-04-28T04:14:21.100Z,30.10
2023-04-28T04:16:48.532Z,30.40
2023-04-28T04:19:15.631Z,30.27
2023-04-28T04:21:42.376Z,31.23
2023-04-28T04:24:09.404Z,28.25
2023-04-28T04:26:36.272Z,29.73
2023-04-28T04:29:03.441Z,29.88
2023-04-28T04:31:30.273Z,30.15
2023-04-28T04:33:57.946Z,28.58
2023-04-28T04:36:24.702Z,29.05
2023-04-28T04:38:53.881Z,29.10
2023-04-28T04:41:21.926Z,29.55
2023-04-28T04:43:49.085Z,27.58
2023-04-28T04:46:15.934Z,27.02
2023-04-28T04:48:43.288Z,27.35
2023-04-28T04:51:10.072Z,27.77
2023-04-28T04:53:37.460Z,29.17
2023-04-28T04:56:04.482Z,27.55
2023-04-28T04:58:31.573Z,27.20
2023-04-28T05:00:58.255Z,26.15
2023-04-28T05:03:25.584Z,25.88
2023-04-28T05:05:52.380Z,25.33
2023-04-28T05:08:19.415Z,24.42
2023-04-28T05:10:46.310Z,24.25
2023-04-28T05:13:13.265Z,24.00
2023-04-28T05:15:40.066Z,25.20
2023-04-28T05:18:11.035Z,25.17
2023-04-28T05:20:37.937Z,23.08
2023-04-28T05:23:06.046Z,23.50
2023-04-28T05:25:32.908Z,23.50
2023-04-28T05:28:04.777Z,22.38
2023-04-28T05:30:31.880Z,21.90
2023-04-28T05:32:59.006Z,22.88
2023-04-28T05:35:26.184Z,21.52
2023-04-28T05:37:53.196Z,22.17
2023-04-28T05:40:20.040Z,23.48
2023-04-28T05:42:47.041Z,21.85
2023-04-28T05:45:13.790Z,21.42
2023-04-28T05:47:40.852Z,20.45
2023-04-28T05:50:08.216Z,20.48
2023-04-28T05:52:35.194Z,21.52
2023-04-28T05:55:01.992Z,19.75
2023-04-28T05:57:30.547Z,20.02
2023-04-28T06:00:00.733Z,19.35
2023-04-28T06:04:54.960Z,18.00
2023-04-28T06:07:22.338Z,18.77
2023-04-28T06:09:49.641Z,17.27
2023-04-28T06:12:16.808Z,17.55
2023-04-28T06:14:43.634Z,15.93
2023-04-28T06:17:10.849Z,16.38
2023-04-28T06:19:37.546Z,16.95
2023-04-28T06:22:04.689Z,16.80
2023-04-28T06:24:31.439Z,16.08
2023-04-28T06:26:58.492Z,15.63
2023-04-28T06:29:25.306Z,16.45
2023-04-28T06:31:52.917Z,15.43
2023-04-28T06:34:19.799Z,14.63
2023-04-28T06:36:46.800Z,14.57
2023-04-28T06:39:13.551Z,14.23
2023-04-28T06:41:41.204Z,14.50
2023-04-28T06:44:08.230Z,13.25
2023-04-28T06:46:36.894Z,13.75
2023-04-28T06:49:03.702Z,13.57
2023-04-28T06:51:33.811Z,13.68
2023-04-28T06:54:00.729Z,12.88
2023-04-28T06:56:27.774Z,13.07
2023-04-28T06:58:58.924Z,13.55
2023-04-28T07:01:26.000Z,14.02
2023-04-28T07:03:52.854Z,12.25
2023-04-28T07:06:20.418Z,12.10
2023-04-28T07:08:47.144Z,12.40
2023-04-28T07:11:14.247Z,12.20
2023-04-28T07:13:40.987Z,12.05
2023-04-28T07:16:08.336Z,13.02
2023-04-28T07:18:35.081Z,12.35
2023-04-28T07:21:04.841Z,12.75
2023-04-28T07:23:32.326Z,10.68
2023-04-28T07:25:59.431Z,12.25
2023-04-28T07:28:26.478Z,12.35
2023-04-28T07:30:53.466Z,11.93
2023-04-28T07:33:20.292Z,10.75
2023-04-28T07:35:48.159Z,10.02
2023-04-28T07:38:15.090Z,9.70
2023-04-28T07:40:43.795Z,9.25
2023-04-28T07:43:10.538Z,9.77
2023-04-28T07:45:40.910Z,9.50
2023-04-28T07:48:08.049Z,9.07
2023-04-28T07:50:35.150Z,8.55
2023-04-28T07:53:01.889Z,9.10
2023-04-28T07:55:29.148Z,8.00
2023-04-28T07:57:55.971Z,8.43
2023-04-28T08:00:23.120Z,7.90
2023-04-28T08:02:50.056Z,7.43
2023-04-28T08:05:17.333Z,6.85
2023-04-28T08:07:44.175Z,6.88
2023-04-28T08:10:11.736Z,6.55
2023-04-28T08:12:38.665Z,6.18
2023-04-28T08:15:06.174Z,5.97
2023-04-28T08:17:32.943Z,6.22
2023-04-28T08:20:02.921Z,5.88
2023-04-28T08:22:29.644Z,6.10
2023-04-28T08:24:56.748Z,5.50
2023-04-28T08:27:24.876Z,5.00
2023-04-28T08:29:51.975Z,5.65
2023-04-28T08:32:18.753Z,5.45
2023-04-28T08:34:45.844Z,5.35
2023-04-28T08:37:13.545Z,5.00
2023-04-28T08:39:40.569Z,4.45
2023-04-28T08:42:07.265Z,4.53
2023-04-28T08:44:39.476Z,3.78
2023-04-28T08:47:15.342Z,4.88
2023-04-28T08:49:42.471Z,4.43
2023-04-28T08:52:13.431Z,3.97
2023-04-28T08:54:41.163Z,4.00
2023-04-28T08:57:09.336Z,4.60
2023-04-28T08:59:42.503Z,3.67
2023-04-28T09:02:09.444Z,3.38
2023-04-28T09:04:37.090Z,3.85
2023-04-28T09:07:04.058Z,3.83
2023-04-28T09:09:34.161Z,3.38
2023-04-28T09:12:04.881Z,3.65
2023-04-28T09:14:33.284Z,3.67
2023-04-28T09:17:00.203Z,3.97
2023-04-28T09:19:34.427Z,4.00
2023-04-28T09:22:05.698Z,3.50
2023-04-28T09:24:42.999Z,2.97
2023-04-28T09:27:15.489Z,3.33
2023-04-28T09:29:52.789Z,3.42
2023-04-28T09:32:21.331Z,3.53
2023-04-28T09:34:53.892Z,3.03
2023-04-28T09:37:22.643Z,2.53
2023-04-28T09:39:51.060Z,3.20
2023-04-28T09:42:37.399Z,3.53
2023-04-28T09:45:08.581Z,2.65
2023-04-28T09:47:37.164Z,2.88
2023-04-28T09:50:06.641Z,3.00
2023-04-28T09:52:34.727Z,3.10
2023-04-28T09:55:05.805Z,3.20
2023-04-28T09:57:33.588Z,3.38
2023-04-28T10:00:01.320Z,3.28
2023-04-28T10:04:58.437Z,3.20
2023-04-28T10:07:25.989Z,3.35
2023-04-28T10:09:53.668Z,3.00
2023-04-28T10:12:21.813Z,2.92
2023-04-28T10:14:55.471Z,2.78
2023-04-28T10:17:22.579Z,3.58
2023-04-28T10:19:53.025Z,3.20
2023-04-28T10:22:43.134Z,2.58
2023-04-28T10:25:14.132Z,2.80
2023-04-28T10:27:44.630Z,2.38
2023-04-28T10:32:48.700Z,2.20
2023-04-28T10:35:22.802Z,2.70
2023-04-28T10:38:10.846Z,2.25
2023-04-28T10:40:39.102Z,3.00
2023-04-28T10:43:06.435Z,2.50
2023-04-28T10:45:48.780Z,2.20
2023-04-28T10:48:16.140Z,2.60
2023-04-28T10:50:58.888Z,2.05
2023-04-28T10:53:47.440Z,2.08
2023-04-28T10:56:19.347Z,2.00
2023-04-28T10:58:46.834Z,1.85
2023-04-28T11:01:20.146Z,2.15
2023-04-28T11:04:07.966Z,1.88
2023-04-28T11:06:36.446Z,1.98
2023-04-28T11:09:12.281Z,1.77
2023-04-28T11:11:40.234Z,2.28
2023-04-28T11:14:19.059Z,1.70
2023-04-28T11:16:56.470Z,1.98
2023-04-28T11:19:27.460Z,1.80
2023-04-28T11:21:56.126Z,1.80
2023-04-28T11:24:26.256Z,1.80
2023-04-28T11:26:53.719Z,1.92
2023-04-28T11:29:31.697Z,1.92
2023-04-28T11:31:58.985Z,1.90
2023-04-28T11:34:25.850Z,2.15
2023-04-28T11:36:54.680Z,1.88
2023-04-28T11:39:29.368Z,1.60
2023-04-28T11:41:57.218Z,1.65
2023-04-28T11:44:25.372Z,2.05
2023-04-28T11:46:57.446Z,1.73
2023-04-28T11:49:27.251Z,1.88
2023-04-28T11:51:54.898Z,1.73
2023-04-28T11:54:23.478Z,1.63
2023-04-28T11:56:50.959Z,1.80
2023-04-28T11:59:18.241Z,1.52
2023-04-28T12:01:52.130Z,1.77
2023-04-28T12:04:32.746Z,1.60
2023-04-28T12:07:15.804Z,2.15
2023-04-28T12:09:44.172Z,1.60
2023-04-28T12:12:17.191Z,1.67
2023-04-28T12:15:05.206Z,1.80
2023-04-28T12:17:39.551Z,2.05
2023-04-28T12:20:10.498Z,1.50
2023-04-28T12:22:48.385Z,1.65
2023-04-28T12:25:19.436Z,1.52
2023-04-28T12:28:03.334Z,1.95
2023-04-28T12:30:31.773Z,2.00
2023-04-28T12:33:00.511Z,1.67
2023-04-28T12:35:28.569Z,1.77
2023-04-28T12:37:57.036Z,1.98
2023-04-28T12:40:24.551Z,1.77
2023-04-28T12:42:51.828Z,1.48
2023-04-28T12:45:18.663Z,1.48
2023-04-28T12:47:46.223Z,1.77
2023-04-28T12:50:13.062Z,1.77
2023-04-28T12:52:40.333Z,1.67
2023-04-28T12:55:08.212Z,1.30
2023-04-28T12:57:39.116Z,1.20
2023-04-28T13:00:07.477Z,1.65
2023-04-28T13:02:35.105Z,1.55
2023-04-28T13:05:03.000Z,1.40
2023-04-28T13:07:30.482Z,1.45
2023-04-28T13:09:58.188Z,1.58
2023-04-28T13:12:25.720Z,1.95
2023-04-28T13:14:52.583Z,1.52
2023-04-28T13:17:19.749Z,1.40
2023-04-28T13:19:47.436Z,1.42
2023-04-28T13:22:15.806Z,1.40
2023-04-28T13:24:43.039Z,1.52
2023-04-28T13:27:10.599Z,1.13
2023-04-28T13:29:37.525Z,1.67
2023-04-28T13:32:07.717Z,1.38
2023-04-28T13:34:34.679Z,1.35
2023-04-28T13:37:01.744Z,1.63
2023-04-28T13:39:28.458Z,1.30
2023-04-28T13:41:55.592Z,1.30
2023-04-28T13:44:22.776Z,1.73
2023-04-28T13:46:49.916Z,1.48
2023-04-28T13:49:17.013Z,1.92
2023-04-28T13:51:45.700Z,1.73
2023-04-28T13:54:12.904Z,1.50
2023-04-28T13:56:40.081Z,1.63
2023-04-28T13:59:07.369Z,1.52
2023-04-28T14:01:34.524Z,1.65
2023-04-28T14:04:03.360Z,1.60
2023-04-28T14:06:31.934Z,1.70
2023-04-28T14:08:59.770Z,1.90
2023-04-28T14:11:27.254Z,1.40
2023-04-28T14:13:54.080Z,1.30
2023-04-28T14:16:21.432Z,1.35
2023-04-28T14:18:48.263Z,2.20
2023-04-28T14:21:15.456Z,1.80
2023-04-28T14:23:42.248Z,1.80
2023-04-28T14:26:09.441Z,1.85
2023-04-28T14:28:36.468Z,1.95
2023-04-28T14:31:07.213Z,2.33
2023-04-28T14:33:34.209Z,2.67
2023-04-28T14:36:02.420Z,2.45
2023-04-28T14:38:30.889Z,2.65
2023-04-28T14:40:58.211Z,2.55
2023-04-28T14:43:25.163Z,2.72
2023-04-28T14:45:52.554Z,2.13
2023-04-28T14:48:20.235Z,2.53
2023-04-28T14:50:47.664Z,2.50
2023-04-28T14:53:14.510Z,2.80
2023-04-28T14:55:41.582Z,3.00
2023-04-28T14:58:08.353Z,2.80
2023-04-28T15:00:35.637Z,2.88
2023-04-28T15:03:02.463Z,2.80
2023-04-28T15:05:29.677Z,3.20
2023-04-28T15:07:56.806Z,3.20
2023-04-28T15:10:23.871Z,3.00
2023-04-28T15:12:50.745Z,2.92
2023-04-28T15:15:17.843Z,2.90
2023-04-28T15:17:45.550Z,2.58
2023-04-28T15:20:12.683Z,2.88
2023-04-28T15:22:39.492Z,2.60
2023-04-28T15:25:07.493Z,2.75
2023-04-28T15:27:34.239Z,2.30
2023-04-28T15:30:01.506Z,2.58
2023-04-28T15:32:30.393Z,2.20
2023-04-28T15:34:57.976Z,2.20
2023-04-28T15:37:38.473Z,2.53
2023-04-28T15:40:06.185Z,2.38
2023-04-28T15:42:33.006Z,2.55
2023-04-28T15:45:00.150Z,3.17
2023-04-28T15:47:26.929Z,2.53
2023-04-28T15:49:53.975Z,2.50
2023-04-28T15:52:22.519Z,2.67
2023-04-28T15:54:49.970Z,2.60
2023-04-28T15:57:16.843Z,2.58
2023-04-28T15:59:43.911Z,2.17
2023-04-28T16:02:10.772Z,1.85
2023-04-28T16:04:38.365Z,2.38
2023-04-28T16:07:05.250Z,2.17
2023-04-28T16:09:33.504Z,1.70
2023-04-28T16:12:01.194Z,2.08
2023-04-28T16:14:28.194Z,1.75
2023-04-28T16:16:55.780Z,2.25
2023-04-28T16:19:23.210Z,1.88
2023-04-28T16:21:50.010Z,2.63
2023-04-28T16:24:17.199Z,2.17
2023-04-28T16:26:44.017Z,2.22
2023-04-28T16:29:13.535Z,1.80
2023-04-28T16:31:41.176Z,1.90
2023-04-28T16:34:08.472Z,2.15
2023-04-28T16:36:35.310Z,2.15
2023-04-28T16:39:02.385Z,2.33
2023-04-28T16:41:29.172Z,2.58
2023-04-28T16:43:56.284Z,2.20
2023-04-28T16:46:23.134Z,2.80
2023-04-28T16:48:50.259Z,2.88
2023-04-28T16:51:17.179Z,2.50
2023-04-28T16:53:44.235Z,3.70
2023-04-28T16:56:11.325Z,3.35
2023-04-28T16:58:38.455Z,3.17
2023-04-28T17:01:05.344Z,2.58
2023-04-28T17:03:32.778Z,3.15
2023-04-28T17:05:59.807Z,2.95
2023-04-28T17:08:26.932Z,3.35
2023-04-28T17:10:54.835Z,3.55
2023-04-28T17:13:22.096Z,3.70
2023-04-28T17:15:55.746Z,4.18
2023-04-28T17:18:22.916Z,4.20
2023-04-28T17:20:50.330Z,5.28
2023-04-28T17:23:17.437Z,4.38
2023-04-28T17:25:44.235Z,4.85
2023-04-28T17:28:11.546Z,4.75
2023-04-28T17:30:38.460Z,4.45
2023-04-28T17:33:05.668Z,4.35
2023-04-28T17:35:32.540Z,5.43
2023-04-28T17:37:59.679Z,4.68
2023-04-28T17:40:26.939Z,4.93
2023-04-28T17:42:57.393Z,4.93
2023-04-28T17:45:24.768Z,5.03
2023-04-28T17:47:52.964Z,5.00
2023-04-28T17:50:19.925Z,5.57
2023-04-28T17:52:48.341Z,4.93
2023-04-28T17:55:16.129Z,5.00
2023-04-28T17:57:43.246Z,4.70
2023-04-28T18:00:12.171Z,4.70
2023-04-28T18:02:40.073Z,4.70
2023-04-28T18:05:09.101Z,4.50
2023-04-28T18:07:36.453Z,4.95
2023-04-28T18:10:04.820Z,5.35
2023-04-28T18:12:31.977Z,5.60
2023-04-28T18:14:58.829Z,5.38
2023-04-28T18:17:26.341Z,5.70
2023-04-28T18:19:56.979Z,5.82
2023-04-28T18:22:24.573Z,6.80
2023-04-28T18:24:51.715Z,6.30
2023-04-28T18:27:19.101Z,7.07
2023-04-28T18:29:46.229Z,6.05
2023-04-28T18:32:14.972Z,6.15
2023-04-28T18:34:43.420Z,7.25
2023-04-28T18:37:10.778Z,6.63
2023-04-28T18:39:38.131Z,6.00
2023-04-28T18:42:05.700Z,6.75
2023-04-28T18:44:32.566Z,6.80
2023-04-28T18:47:01.356Z,6.03
2023-04-28T18:49:28.346Z,6.45
2023-04-28T18:51:55.978Z,7.20
2023-04-28T18:54:22.822Z,7.68
2023-04-28T18:56:50.117Z,7.97
2023-04-28T18:59:17.003Z,7.35
2023-04-28T19:01:44.196Z,8.52
2023-04-28T19:04:11.104Z,8.15
2023-04-28T19:06:38.450Z,9.25
2023-04-28T19:09:05.265Z,8.80
2023-04-28T19:11:32.393Z,8.32
2023-04-28T19:13:59.183Z,8.60
2023-04-28T19:16:26.416Z,8.25
2023-04-28T19:18:53.267Z,9.13
2023-04-28T19:21:23.568Z,8.70
2023-04-28T19:23:50.382Z,8.98
2023-04-28T19:26:17.480Z,9.73
2023-04-28T19:28:45.035Z,8.60
2023-04-28T19:31:12.238Z,9.05
2023-04-28T19:33:39.073Z,9.90
2023-04-28T19:36:07.508Z,10.13
2023-04-28T19:38:35.448Z,10.00
2023-04-28T19:41:02.624Z,11.50
2023-04-28T19:43:29.857Z,11.50
2023-04-28T19:45:58.020Z,10.77
2023-04-28T19:48:26.242Z,11.85
2023-04-28T19:50:54.661Z,11.32
2023-04-28T19:53:22.666Z,11.40
2023-04-28T19:55:50.844Z,11.65
2023-04-28T19:58:18.397Z,10.95
2023-04-28T20:00:45.794Z,11.70
2023-04-28T20:03:13.162Z,10.73
2023-04-28T20:05:40.968Z,10.15
2023-04-28T20:08:08.217Z,10.48
2023-04-28T20:10:35.456Z,10.27
2023-04-28T20:13:02.898Z,9.98
2023-04-28T20:15:30.022Z,10.45
2023-04-28T20:17:56.962Z,10.80
2023-04-28T20:20:25.620Z,10.50
2023-04-28T20:22:52.520Z,11.35
2023-04-28T20:25:19.765Z,9.75
2023-04-28T20:27:48.022Z,10.38
2023-04-28T20:30:15.179Z,10.55
2023-04-28T20:32:42.570Z,10.68
2023-04-28T20:35:10.898Z,11.30
2023-04-28T20:37:37.825Z,10.40
2023-04-28T20:40:05.594Z,10.75
2023-04-28T20:42:33.245Z,9.95
2023-04-28T20:45:00.488Z,11.05
2023-04-28T20:47:27.420Z,9.95
2023-04-28T20:49:54.682Z,9.73
2023-04-28T20:52:21.796Z,9.88
2023-04-28T20:54:49.068Z,9.60
2023-04-28T20:57:15.858Z,9.60
2023-04-28T20:59:42.953Z,10.38
2023-04-28T21:02:09.919Z,9.48
2023-04-28T21:04:37.471Z,9.85
2023-04-28T21:07:04.312Z,9.50
2023-04-28T21:09:31.487Z,9.15
2023-04-28T21:11:58.278Z,9.55
2023-04-28T21:14:25.419Z,9.38
2023-04-28T21:16:52.327Z,9.52
2023-04-28T21:19:19.447Z,9.80
2023-04-28T21:21:46.298Z,9.90
2023-04-28T21:24:13.834Z,8.45
2023-04-28T21:26:40.899Z,9.13
2023-04-28T21:29:09.344Z,9.00
2023-04-28T21:31:36.266Z,8.73
2023-04-28T21:34:03.616Z,9.52
2023-04-28T21:36:30.804Z,8.52
2023-04-28T21:38:58.025Z,9.88
2023-04-28T21:41:25.460Z,9.38
2023-04-28T21:43:52.638Z,9.82
2023-04-28T21:46:19.380Z,8.43
2023-04-28T21:48:46.595Z,8.20
2023-04-28T21:51:14.384Z,8.85
2023-04-28T21:53:41.470Z,9.00
2023-04-28T21:56:08.255Z,7.97
2023-04-28T21:58:35.914Z,8.23
2023-04-28T22:01:03.178Z,8.02
2023-04-28T22:03:30.503Z,8.00
2023-04-28T22:05:57.379Z,7.85
2023-04-28T22:08:24.629Z,7.43
2023-04-28T22:10:51.560Z,7.90
2023-04-28T22:13:18.590Z,7.65
2023-04-28T22:15:45.947Z,7.65
2023-04-28T22:18:13.092Z,8.40
2023-04-28T22:20:40.358Z,8.93
2023-04-28T22:23:07.478Z,10.15
2023-04-28T22:25:34.220Z,8.63
2023-04-28T22:28:01.328Z,9.32
2023-04-28T22:30:30.942Z,10.13
2023-04-28T22:32:57.961Z,10.02
2023-04-28T22:35:24.739Z,11.18
2023-04-28T22:37:51.772Z,10.45
2023-04-28T22:40:18.621Z,12.02
2023-04-28T22:42:45.706Z,11.32
2023-04-28T22:45:12.573Z,11.15
2023-04-28T22:47:40.798Z,9.55
2023-04-28T22:50:11.286Z,10.07
2023-04-28T22:52:39.601Z,11.38
2023-04-28T22:55:06.744Z,11.68
2023-04-28T22:57:33.990Z,11.05
2023-04-28T23:00:00.744Z,10.52
2023-04-28T23:02:27.976Z,11.63
2023-04-28T23:04:54.978Z,9.82
2023-04-28T23:07:22.059Z,11.18
2023-04-28T23:09:48.936Z,11.20
2023-04-28T23:12:16.398Z,12.05
2023-04-28T23:14:43.127Z,10.95
2023-04-28T23:17:10.163Z,11.35
2023-04-28T23:19:39.147Z,11.13
2023-04-28T23:22:07.416Z,10.35
2023-04-28T23:24:34.875Z,12.27
2023-04-28T23:27:02.311Z,11.00
2023-04-28T23:29:29.059Z,10.43
2023-04-28T23:31:56.179Z,10.57
2023-04-28T23:34:23.354Z,10.93
2023-04-28T23:36:50.976Z,11.57
2023-04-28T23:39:17.658Z,10.95
2023-04-28T23:41:44.760Z,10.13
2023-04-28T23:44:11.698Z,10.25
2023-04-28T23:46:38.755Z,10.45
2023-04-28T23:49:05.503Z,10.85
2023-04-28T23:51:32.705Z,11.02
2023-04-28T23:53:59.486Z,10.65
2023-04-28T23:56:26.862Z,10.50
2023-04-28T23:58:53.779Z,11.20
